createdAt,value
2018-06-09T00:01:31.955Z,19.40
2018-06-09T00:04:00.061Z,19.40
2018-06-09T00:06:28.155Z,19.30
2018-06-09T00:08:56.178Z,19.30
2018-06-09T00:11:25.304Z,19.20
2018-06-09T00:13:53.240Z,19.20
2018-06-09T00:16:21.159Z,19.20
2018-06-09T00:18:55.864Z,19.20
2018-06-09T00:21:23.681Z,19.10
2018-06-09T00:23:52.793Z,19.10
2018-06-09T00:26:20.806Z,19.10
2018-06-09T00:28:48.961Z,19.10
2018-06-09T00:31:16.890Z,19.00
2018-06-09T00:33:44.843Z,18.90
2018-06-09T00:36:12.706Z,18.90
2018-06-09T00:38:40.646Z,18.80
2018-06-09T00:41:08.640Z,18.70
2018-06-09T00:43:36.607Z,18.60
2018-06-09T00:46:04.538Z,18.60
2018-06-09T00:48:32.415Z,18.60
2018-06-09T00:51:00.990Z,18.50
2018-06-09T00:53:29.023Z,18.50
2018-06-09T00:56:08.146Z,18.40
2018-06-09T00:58:36.320Z,18.40
2018-06-09T01:01:04.270Z,18.30
2018-06-09T01:03:32.192Z,18.30
2018-06-09T01:06:00.105Z,18.30
2018-06-09T01:08:27.966Z,18.20
2018-06-09T01:10:55.889Z,18.20
2018-06-09T01:13:23.923Z,18.10
2018-06-09T01:15:51.882Z,18.10
2018-06-09T01:18:19.765Z,18.00
2018-06-09T01:20:48.538Z,18.00
2018-06-09T01:23:16.445Z,18.00
2018-06-09T01:25:44.357Z,17.90
2018-06-09T01:28:12.103Z,17.90
2018-06-09T01:30:40.212Z,17.90
2018-06-09T01:33:08.286Z,17.80
2018-06-09T01:35:36.188Z,17.80
2018-06-09T01:38:04.053Z,17.80
2018-06-09T01:40:31.974Z,17.80
2018-06-09T01:43:00.151Z,17.80
2018-06-09T01:45:28.165Z,17.80
2018-06-09T01:47:56.116Z,17.80
2018-06-09T01:50:24.084Z,17.70
2018-06-09T01:52:51.997Z,17.70
2018-06-09T01:55:19.917Z,17.70
2018-06-09T01:57:47.839Z,17.70
2018-06-09T02:00:15.743Z,17.70
2018-06-09T02:02:43.737Z,17.70
2018-06-09T02:05:11.606Z,17.70
2018-06-09T02:07:39.608Z,17.70
2018-06-09T02:10:09.583Z,17.70
2018-06-09T02:12:37.550Z,17.70
2018-06-09T02:15:05.418Z,17.60
2018-06-09T02:17:33.511Z,17.60
2018-06-09T02:20:01.424Z,17.50
2018-06-09T02:22:29.407Z,17.50
2018-06-09T02:27:25.189Z,17.40
2018-06-09T02:29:53.117Z,17.30
2018-06-09T02:32:21.059Z,17.30
2018-06-09T02:34:48.958Z,17.20
2018-06-09T02:37:16.872Z,17.20
2018-06-09T02:39:44.798Z,17.20
2018-06-09T02:42:12.679Z,17.20
2018-06-09T02:44:40.837Z,17.10
2018-06-09T02:47:08.982Z,17.10
2018-06-09T02:49:36.995Z,17.00
2018-06-09T02:52:05.081Z,17.00
2018-06-09T02:54:33.091Z,17.00
2018-06-09T02:57:01.039Z,16.90
2018-06-09T02:59:28.952Z,16.90
2018-06-09T03:01:56.778Z,16.90
2018-06-09T03:04:24.783Z,17.00
2018-06-09T03:06:52.919Z,16.90
2018-06-09T03:09:20.878Z,16.90
2018-06-09T03:11:48.866Z,16.90
2018-06-09T03:14:16.776Z,16.90
2018-06-09T03:16:44.679Z,16.90
2018-06-09T03:19:12.554Z,17.00
2018-06-09T03:21:40.562Z,17.00
2018-06-09T03:24:08.745Z,17.00
2018-06-09T03:26:37.434Z,17.00
2018-06-09T03:29:05.312Z,17.00
2018-06-09T03:31:33.250Z,17.10
2018-06-09T03:34:01.177Z,17.10
2018-06-09T03:36:29.294Z,17.10
2018-06-09T03:38:57.218Z,17.10
2018-06-09T03:41:25.134Z,17.10
2018-06-09T03:43:53.174Z,17.10
2018-06-09T03:46:21.243Z,17.10
2018-06-09T03:48:49.110Z,17.00
2018-06-09T03:51:16.970Z,17.00
2018-06-09T03:53:44.867Z,17.00
2018-06-09T03:56:12.917Z,17.00
2018-06-09T03:58:41.429Z,17.00
2018-06-09T04:01:09.318Z,17.00
2018-06-09T04:03:37.194Z,17.10
2018-06-09T04:06:05.062Z,17.10
2018-06-09T04:08:33.312Z,17.10
2018-06-09T04:11:02.459Z,17.20
2018-06-09T04:13:43.556Z,17.20
2018-06-09T04:16:11.470Z,17.30
2018-06-09T04:18:39.282Z,17.30
2018-06-09T04:21:07.221Z,17.40
2018-06-09T04:23:35.174Z,17.40
2018-06-09T04:26:03.084Z,17.40
2018-06-09T04:28:31.177Z,17.50
2018-06-09T04:31:00.382Z,17.50
2018-06-09T04:33:28.279Z,17.60
2018-06-09T04:35:56.280Z,17.60
2018-06-09T04:38:24.382Z,17.70
2018-06-09T04:40:52.154Z,17.80
2018-06-09T04:43:20.140Z,17.90
2018-06-09T04:45:48.044Z,17.90
2018-06-09T04:48:15.935Z,17.90
2018-06-09T04:53:11.647Z,18.00
2018-06-09T04:55:39.481Z,18.00
2018-06-09T04:58:07.505Z,18.10
2018-06-09T05:00:36.774Z,18.10
2018-06-09T05:03:04.762Z,18.20
2018-06-09T05:05:46.188Z,18.20
2018-06-09T05:08:14.047Z,18.30
2018-06-09T05:11:05.378Z,18.50
2018-06-09T05:13:33.366Z,18.70
2018-06-09T05:16:01.408Z,18.80
2018-06-09T05:18:29.471Z,19.10
2018-06-09T05:20:58.318Z,19.20
2018-06-09T05:23:28.430Z,19.30
2018-06-09T05:28:29.248Z,19.50
2018-06-09T05:31:02.075Z,19.60
2018-06-09T05:33:33.134Z,19.70
2018-06-09T05:36:07.840Z,19.80
2018-06-09T05:38:37.303Z,20.00
2018-06-09T05:41:15.034Z,20.10
2018-06-09T05:43:43.966Z,20.20
2018-06-09T05:46:13.626Z,20.30
2018-06-09T05:48:43.685Z,20.30
2018-06-09T05:51:11.671Z,20.30
2018-06-09T05:53:39.801Z,20.30
2018-06-09T05:56:07.717Z,20.30
2018-06-09T05:58:35.549Z,20.30
2018-06-09T06:01:03.932Z,20.30
2018-06-09T06:03:31.837Z,20.30
2018-06-09T06:05:59.681Z,20.40
2018-06-09T06:08:27.651Z,20.50
2018-06-09T06:10:55.780Z,20.50
2018-06-09T06:13:24.042Z,20.60
2018-06-09T06:15:51.977Z,20.70
2018-06-09T06:18:20.007Z,20.80
2018-06-09T06:20:48.865Z,21.00
2018-06-09T06:23:17.695Z,21.30
2018-06-09T06:25:46.564Z,21.50
2018-06-09T06:28:14.490Z,21.80
2018-06-09T06:30:42.396Z,22.00
2018-06-09T06:33:11.321Z,22.10
2018-06-09T06:35:39.243Z,22.10
2018-06-09T06:40:35.724Z,22.20
2018-06-09T06:43:03.724Z,22.20
2018-06-09T06:45:31.914Z,22.10
2018-06-09T06:47:59.862Z,22.20
2018-06-09T06:50:27.818Z,22.40
2018-06-09T06:52:55.711Z,22.40
2018-06-09T06:55:23.648Z,22.40
2018-06-09T06:57:51.555Z,22.50
2018-06-09T07:00:19.454Z,22.70
2018-06-09T07:02:47.535Z,22.80
2018-06-09T07:05:15.391Z,23.00
2018-06-09T07:07:43.476Z,23.00
2018-06-09T07:10:11.436Z,23.20
2018-06-09T07:12:39.353Z,23.30
2018-06-09T07:15:07.278Z,23.30
2018-06-09T07:17:35.116Z,23.30
2018-06-09T07:20:03.179Z,23.10
2018-06-09T07:22:31.202Z,23.10
2018-06-09T07:24:59.138Z,23.10
2018-06-09T07:27:27.022Z,23.20
2018-06-09T07:29:54.942Z,23.30
2018-06-09T07:32:22.784Z,23.40
2018-06-09T07:34:50.654Z,23.80
2018-06-09T07:37:18.560Z,24.30
2018-06-09T07:39:46.500Z,24.60
2018-06-09T07:42:14.467Z,25.00
2018-06-09T07:44:42.441Z,25.30
2018-06-09T07:47:10.437Z,25.90
2018-06-09T07:49:38.645Z,26.30
2018-06-09T07:52:06.498Z,26.40
2018-06-09T07:54:34.314Z,25.90
2018-06-09T07:57:02.109Z,25.70
2018-06-09T08:01:57.844Z,25.30
2018-06-09T08:04:25.680Z,25.40
2018-06-09T08:06:53.552Z,25.40
2018-06-09T08:09:21.403Z,25.60
2018-06-09T08:11:49.361Z,25.80
2018-06-09T08:14:17.286Z,25.80
2018-06-09T08:16:45.276Z,25.90
2018-06-09T08:19:13.287Z,26.30
2018-06-09T08:21:41.216Z,26.60
2018-06-09T08:24:09.185Z,27.00
2018-06-09T08:26:37.104Z,27.20
2018-06-09T08:29:05.150Z,26.90
2018-06-09T08:31:33.003Z,26.40
2018-06-09T08:34:00.884Z,25.90
2018-06-09T08:36:28.801Z,25.50
2018-06-09T08:38:56.661Z,25.20
2018-06-09T08:41:24.571Z,25.40
2018-06-09T08:43:52.460Z,25.50
2018-06-09T08:46:20.413Z,25.80
2018-06-09T08:48:48.444Z,25.90
2018-06-09T08:51:16.480Z,25.80
2018-06-09T08:53:44.318Z,26.00
2018-06-09T08:56:12.330Z,26.40
2018-06-09T08:58:40.230Z,26.60
2018-06-09T09:01:08.194Z,26.80
2018-06-09T09:03:36.141Z,27.30
2018-06-09T09:06:04.032Z,28.10
2018-06-09T09:08:31.954Z,29.00
2018-06-09T09:10:59.925Z,29.60
2018-06-09T09:13:27.914Z,30.10
2018-06-09T09:15:56.821Z,30.50
2018-06-09T09:18:24.665Z,30.90
2018-06-09T09:20:52.554Z,30.90
2018-06-09T09:23:20.514Z,31.10
2018-06-09T09:25:48.432Z,31.00
2018-06-09T09:28:16.538Z,31.30
2018-06-09T09:30:44.679Z,31.10
2018-06-09T09:33:13.934Z,31.00
2018-06-09T09:35:42.782Z,31.60
2018-06-09T09:38:10.811Z,32.40
2018-06-09T09:40:38.806Z,33.20
2018-06-09T09:43:06.862Z,33.80
2018-06-09T09:45:34.859Z,33.90
2018-06-09T09:48:02.727Z,34.60
2018-06-09T09:50:30.809Z,35.20
2018-06-09T09:52:58.783Z,35.70
2018-06-09T09:55:26.646Z,34.90
2018-06-09T10:00:31.376Z,34.40
2018-06-09T10:03:00.340Z,34.50
2018-06-09T10:05:28.450Z,35.20
2018-06-09T10:07:56.384Z,35.90
2018-06-09T10:10:25.004Z,36.40
2018-06-09T10:12:53.093Z,36.60
2018-06-09T10:15:21.164Z,36.30
2018-06-09T10:17:50.080Z,36.70
2018-06-09T10:20:17.950Z,36.70
2018-06-09T10:22:45.810Z,36.90
2018-06-09T10:25:13.636Z,37.20
2018-06-09T10:27:41.498Z,36.70
2018-06-09T10:30:09.546Z,36.40
2018-06-09T10:32:37.358Z,36.50
2018-06-09T10:35:05.338Z,36.90
2018-06-09T10:37:33.218Z,37.20
2018-06-09T10:40:01.089Z,37.40
2018-06-09T10:42:29.007Z,37.60
2018-06-09T10:44:57.027Z,37.40
2018-06-09T10:47:24.934Z,37.00
2018-06-09T10:49:52.908Z,36.70
2018-06-09T10:52:20.858Z,37.10
2018-06-09T10:57:16.367Z,37.20
2018-06-09T10:59:44.273Z,37.30
2018-06-09T11:02:12.094Z,37.10
2018-06-09T11:04:39.927Z,36.70
2018-06-09T11:07:07.677Z,36.80
2018-06-09T11:09:35.439Z,37.00
2018-06-09T11:12:03.242Z,37.10
2018-06-09T11:14:31.166Z,37.10
2018-06-09T11:16:59.109Z,37.40
2018-06-09T11:19:27.037Z,37.60
2018-06-09T11:21:55.041Z,37.10
2018-06-09T11:24:22.959Z,37.10
2018-06-09T11:26:50.826Z,37.30
2018-06-09T11:29:18.791Z,37.10
2018-06-09T11:31:46.722Z,36.20
2018-06-09T11:34:14.577Z,36.40
2018-06-09T11:36:42.543Z,36.00
2018-06-09T11:39:10.549Z,36.00
2018-06-09T11:41:38.525Z,36.10
2018-06-09T11:44:06.671Z,35.70
2018-06-09T11:46:34.693Z,35.50
2018-06-09T11:49:02.635Z,35.30
2018-06-09T11:51:30.551Z,35.40
2018-06-09T11:53:58.394Z,35.80
2018-06-09T11:56:26.278Z,35.60
2018-06-09T11:58:54.256Z,35.10
2018-06-09T12:01:22.903Z,35.10
2018-06-09T12:03:50.874Z,35.40
2018-06-09T12:06:18.767Z,35.30
2018-06-09T12:08:46.630Z,35.30
2018-06-09T12:11:15.896Z,34.60
2018-06-09T12:13:43.932Z,34.40
2018-06-09T12:18:39.604Z,33.50
2018-06-09T12:21:08.254Z,32.90
2018-06-09T12:23:36.302Z,32.60
2018-06-09T12:26:04.325Z,32.40
2018-06-09T12:28:32.400Z,31.90
2018-06-09T12:31:00.199Z,31.80
2018-06-09T12:33:28.074Z,31.80
2018-06-09T12:38:23.598Z,31.70
2018-06-09T12:40:51.426Z,31.80
2018-06-09T12:43:19.406Z,31.90
2018-06-09T12:45:48.486Z,31.90
2018-06-09T12:48:16.549Z,32.10
2018-06-09T12:50:44.994Z,31.90
2018-06-09T12:53:12.926Z,31.90
2018-06-09T12:55:40.993Z,31.90
2018-06-09T12:58:09.147Z,31.70
2018-06-09T13:00:37.172Z,31.90
2018-06-09T13:03:05.087Z,32.10
2018-06-09T13:05:33.013Z,32.00
2018-06-09T13:08:00.929Z,31.60
2018-06-09T13:10:28.789Z,31.50
2018-06-09T13:12:56.673Z,31.30
2018-06-09T13:15:24.687Z,31.20
2018-06-09T13:17:52.569Z,31.00
2018-06-09T13:20:20.518Z,30.80
2018-06-09T13:22:48.436Z,30.70
2018-06-09T13:25:16.332Z,30.30
2018-06-09T13:30:12.211Z,30.50
2018-06-09T13:32:40.190Z,30.70
2018-06-09T13:35:09.493Z,30.60
2018-06-09T13:37:37.641Z,30.60
2018-06-09T13:40:05.737Z,30.40
2018-06-09T13:42:33.690Z,30.30
2018-06-09T13:45:01.594Z,30.20
2018-06-09T13:47:29.470Z,30.10
2018-06-09T13:49:57.338Z,29.80
2018-06-09T13:52:25.136Z,29.80
2018-06-09T13:54:52.928Z,29.70
2018-06-09T13:57:20.961Z,29.70
2018-06-09T13:59:48.902Z,29.80
2018-06-09T14:02:16.735Z,30.10
2018-06-09T14:04:44.790Z,30.00
2018-06-09T14:07:12.649Z,29.90
2018-06-09T14:09:40.565Z,29.70
2018-06-09T14:12:08.349Z,29.80
2018-06-09T14:14:36.451Z,29.90
2018-06-09T14:17:04.586Z,29.80
2018-06-09T14:19:32.397Z,29.90
2018-06-09T14:22:00.255Z,29.80
2018-06-09T14:24:28.208Z,29.60
2018-06-09T14:26:56.104Z,29.60
2018-06-09T14:29:23.970Z,29.60
2018-06-09T14:31:51.760Z,29.60
2018-06-09T14:34:19.688Z,29.70
2018-06-09T14:36:47.560Z,29.60
2018-06-09T14:39:15.448Z,29.40
2018-06-09T14:41:43.349Z,29.40
2018-06-09T14:44:11.152Z,29.40
2018-06-09T14:46:38.983Z,29.50
2018-06-09T14:49:06.972Z,29.50
2018-06-09T14:51:34.868Z,29.60
2018-06-09T14:54:02.671Z,29.60
2018-06-09T14:56:30.518Z,29.60
2018-06-09T14:58:58.484Z,29.40
2018-06-09T15:01:26.948Z,29.40
2018-06-09T15:03:54.835Z,29.40
2018-06-09T15:06:22.790Z,29.40
2018-06-09T15:08:50.850Z,29.30
2018-06-09T15:11:19.576Z,29.20
2018-06-09T15:13:47.511Z,29.20
2018-06-09T15:16:15.426Z,29.20
2018-06-09T15:18:43.237Z,29.20
2018-06-09T15:21:11.061Z,29.10
2018-06-09T15:23:39.103Z,29.10
2018-06-09T15:26:07.235Z,29.10
2018-06-09T15:28:35.115Z,29.20
2018-06-09T15:31:03.718Z,29.20
2018-06-09T15:33:31.458Z,29.30
2018-06-09T15:35:59.358Z,29.40
2018-06-09T15:38:27.243Z,29.30
2018-06-09T15:40:55.496Z,29.30
2018-06-09T15:43:23.420Z,29.10
2018-06-09T15:45:51.372Z,29.00
2018-06-09T15:48:19.301Z,29.00
2018-06-09T15:50:47.179Z,29.00
2018-06-09T15:53:15.105Z,29.00
2018-06-09T15:55:42.945Z,29.10
2018-06-09T15:58:11.140Z,29.10
2018-06-09T16:00:39.021Z,29.00
2018-06-09T16:03:06.885Z,29.00
2018-06-09T16:05:34.784Z,29.00
2018-06-09T16:08:02.734Z,29.00
2018-06-09T16:10:30.514Z,28.90
2018-06-09T16:12:58.403Z,28.90
2018-06-09T16:15:33.000Z,28.80
2018-06-09T16:18:00.979Z,28.70
2018-06-09T16:20:28.952Z,28.60
2018-06-09T16:22:56.942Z,28.50
2018-06-09T16:25:24.882Z,28.50
2018-06-09T16:27:52.843Z,28.50
2018-06-09T16:30:20.713Z,28.40
2018-06-09T16:32:48.680Z,28.50
2018-06-09T16:35:16.768Z,28.50
2018-06-09T16:37:44.707Z,28.50
2018-06-09T16:40:12.618Z,28.40
2018-06-09T16:42:40.423Z,28.30
2018-06-09T16:45:08.223Z,28.30
2018-06-09T16:47:36.151Z,28.20
2018-06-09T16:50:04.197Z,28.20
2018-06-09T16:52:32.901Z,28.20
2018-06-09T16:55:00.815Z,28.20
2018-06-09T16:57:28.839Z,28.30
2018-06-09T16:59:56.786Z,28.30
2018-06-09T17:02:24.704Z,28.30
2018-06-09T17:04:52.564Z,28.30
2018-06-09T17:07:20.499Z,28.30
2018-06-09T17:09:48.278Z,28.30
2018-06-09T17:12:16.133Z,28.30
2018-06-09T17:14:44.111Z,28.30
2018-06-09T17:17:12.049Z,28.10
2018-06-09T17:19:39.907Z,28.00
2018-06-09T17:22:07.950Z,27.90
2018-06-09T17:24:35.792Z,27.90
2018-06-09T17:27:03.778Z,27.70
2018-06-09T17:29:31.736Z,27.60
2018-06-09T17:31:59.697Z,27.50
2018-06-09T17:34:27.703Z,27.40
2018-06-09T17:36:55.643Z,27.20
2018-06-09T17:39:23.652Z,27.10
2018-06-09T17:41:51.537Z,27.10
2018-06-09T17:44:19.501Z,27.10
2018-06-09T17:46:47.324Z,27.00
2018-06-09T17:49:15.202Z,26.90
2018-06-09T17:51:43.147Z,27.00
2018-06-09T17:54:11.012Z,26.90
2018-06-09T17:56:38.922Z,27.00
2018-06-09T17:59:06.751Z,27.00
2018-06-09T18:01:34.707Z,27.00
2018-06-09T18:04:02.765Z,26.90
2018-06-09T18:06:30.623Z,26.80
2018-06-09T18:08:58.519Z,26.70
2018-06-09T18:11:26.452Z,26.60
2018-06-09T18:13:54.232Z,26.50
2018-06-09T18:16:22.174Z,26.40
2018-06-09T18:18:50.044Z,26.40
2018-06-09T18:21:17.893Z,26.30
2018-06-09T18:23:45.675Z,26.20
2018-06-09T18:26:13.638Z,26.20
2018-06-09T18:28:41.426Z,26.10
2018-06-09T18:31:09.494Z,26.00
2018-06-09T18:33:37.511Z,25.90
2018-06-09T18:36:05.496Z,25.80
2018-06-09T18:38:33.460Z,25.70
2018-06-09T18:41:01.367Z,25.70
2018-06-09T18:43:29.338Z,25.60
2018-06-09T18:45:57.273Z,25.60
2018-06-09T18:48:25.071Z,25.60
2018-06-09T18:50:53.041Z,25.50
2018-06-09T18:53:20.942Z,25.50
2018-06-09T18:55:48.958Z,25.50
2018-06-09T18:58:16.809Z,25.40
2018-06-09T19:00:44.744Z,25.40
2018-06-09T19:03:12.734Z,25.40
2018-06-09T19:05:40.687Z,25.40
2018-06-09T19:08:08.696Z,25.30
2018-06-09T19:10:36.561Z,25.30
2018-06-09T19:13:04.601Z,25.30
2018-06-09T19:15:32.592Z,25.30
2018-06-09T19:18:00.428Z,25.30
2018-06-09T19:20:28.386Z,25.20
2018-06-09T19:22:56.332Z,25.20
2018-06-09T19:25:24.231Z,25.10
2018-06-09T19:27:52.091Z,25.10
2018-06-09T19:30:20.052Z,25.00
2018-06-09T19:32:48.005Z,24.90
2018-06-09T19:35:15.911Z,24.90
2018-06-09T19:37:43.827Z,24.80
2018-06-09T19:40:11.878Z,24.70
2018-06-09T19:42:39.711Z,24.60
2018-06-09T19:45:07.584Z,24.50
2018-06-09T19:47:35.470Z,24.40
2018-06-09T19:50:03.516Z,24.40
2018-06-09T19:52:31.382Z,24.30
2018-06-09T19:54:59.362Z,24.20
2018-06-09T19:57:27.295Z,24.20
2018-06-09T19:59:55.130Z,24.20
2018-06-09T20:02:23.017Z,24.10
2018-06-09T20:04:50.906Z,24.10
2018-06-09T20:07:18.780Z,24.10
2018-06-09T20:09:46.687Z,24.00
2018-06-09T20:12:14.827Z,24.00
2018-06-09T20:14:42.721Z,23.90
2018-06-09T20:17:10.603Z,23.90
2018-06-09T20:19:38.576Z,23.90
2018-06-09T20:22:06.561Z,23.80
2018-06-09T20:24:34.352Z,23.80
2018-06-09T20:27:02.262Z,23.80
2018-06-09T20:29:30.334Z,23.70
2018-06-09T20:31:58.366Z,23.70
2018-06-09T20:34:26.334Z,23.70
2018-06-09T20:36:54.218Z,23.70
2018-06-09T20:39:22.103Z,23.70
2018-06-09T20:41:50.112Z,23.70
2018-06-09T20:44:18.168Z,23.70
2018-06-09T20:46:46.247Z,23.70
2018-06-09T20:49:14.455Z,23.70
2018-06-09T20:51:42.472Z,23.70
2018-06-09T20:54:10.356Z,23.70
2018-06-09T20:56:38.204Z,23.70
2018-06-09T20:59:06.171Z,23.60
2018-06-09T21:01:34.171Z,23.60
2018-06-09T21:04:02.226Z,23.60
2018-06-09T21:06:30.096Z,23.60
2018-06-09T21:08:58.048Z,23.60
2018-06-09T21:11:25.980Z,23.50
2018-06-09T21:13:53.884Z,23.50
2018-06-09T21:16:21.840Z,23.40
2018-06-09T21:18:49.743Z,23.30
2018-06-09T21:21:17.677Z,23.30
2018-06-09T21:23:45.687Z,23.30
2018-06-09T21:26:13.591Z,23.20
2018-06-09T21:28:46.899Z,23.20
2018-06-09T21:31:22.246Z,23.20
2018-06-09T21:36:34.497Z,23.10
2018-06-09T21:39:09.782Z,23.00
2018-06-09T21:41:43.921Z,22.90
2018-06-09T21:44:18.890Z,22.90
2018-06-09T21:46:47.942Z,22.90
2018-06-09T21:49:16.869Z,22.80
2018-06-09T21:51:44.825Z,22.80
2018-06-09T21:54:12.819Z,22.70
2018-06-09T21:56:40.759Z,22.70
2018-06-09T21:59:08.693Z,22.70
2018-06-09T22:01:37.474Z,22.60
2018-06-09T22:04:05.438Z,22.60
2018-06-09T22:06:33.452Z,22.60
2018-06-09T22:09:01.382Z,22.50
2018-06-09T22:11:29.424Z,22.50
2018-06-09T22:13:57.375Z,22.50
2018-06-09T22:16:25.382Z,22.40
2018-06-09T22:18:53.226Z,22.40
2018-06-09T22:21:21.170Z,22.30
2018-06-09T22:23:49.056Z,22.30
2018-06-09T22:26:16.926Z,22.30
2018-06-09T22:28:44.824Z,22.30
2018-06-09T22:31:12.737Z,22.30
2018-06-09T22:33:40.590Z,22.30
2018-06-09T22:36:08.493Z,22.20
2018-06-09T22:38:36.481Z,22.20
2018-06-09T22:41:04.341Z,22.20
2018-06-09T22:43:32.231Z,22.10
2018-06-09T22:46:00.088Z,22.10
2018-06-09T22:48:28.112Z,22.00
2018-06-09T22:50:55.977Z,22.00
2018-06-09T22:53:23.850Z,22.00
2018-06-09T22:55:51.791Z,22.00
2018-06-09T22:58:19.812Z,21.90
2018-06-09T23:00:49.215Z,21.90
2018-06-09T23:03:17.590Z,21.80
2018-06-09T23:05:46.271Z,21.80
2018-06-09T23:08:14.230Z,21.80
2018-06-09T23:10:42.279Z,21.80
2018-06-09T23:13:10.232Z,21.80
2018-06-09T23:15:38.138Z,21.80
2018-06-09T23:18:06.012Z,21.80
2018-06-09T23:20:33.891Z,21.80
2018-06-09T23:23:01.855Z,21.80
2018-06-09T23:25:29.769Z,21.80
2018-06-09T23:27:57.796Z,21.80
2018-06-09T23:30:25.719Z,21.80
2018-06-09T23:32:53.593Z,21.70
2018-06-09T23:35:21.490Z,21.60
2018-06-09T23:37:49.442Z,21.20
2018-06-09T23:40:17.394Z,20.40
2018-06-09T23:42:45.404Z,19.80
2018-06-09T23:45:13.266Z,19.60
2018-06-09T23:47:41.180Z,19.40
2018-06-09T23:50:09.148Z,19.30
2018-06-09T23:52:36.989Z,19.20
2018-06-09T23:55:04.891Z,19.10
2018-06-09T23:57:32.775Z,19.10
